createdAt,value
2018-08-09T00:01:01.197Z,12.00
2018-08-09T00:03:29.366Z,12.47
2018-08-09T00:05:57.568Z,13.77
2018-08-09T00:08:25.741Z,9.60
2018-08-09T00:10:53.900Z,14.57
2018-08-09T00:13:22.080Z,10.43
2018-08-09T00:15:50.254Z,13.10
2018-08-09T00:18:18.409Z,12.93
2018-08-09T00:20:46.575Z,9.30
2018-08-09T00:23:14.717Z,10.63
2018-08-09T00:25:42.881Z,12.03
2018-08-09T00:28:11.052Z,14.70
2018-08-09T00:30:39.220Z,11.40
2018-08-09T00:33:07.372Z,12.87
2018-08-09T00:35:35.652Z,12.50
2018-08-09T00:38:03.860Z,12.17
2018-08-09T00:40:32.024Z,16.40
2018-08-09T00:43:00.177Z,11.70
2018-08-09T00:45:28.338Z,11.37
2018-08-09T00:47:56.511Z,10.63
2018-08-09T00:50:24.671Z,19.60
2018-08-09T00:52:52.845Z,14.10
2018-08-09T00:55:21.008Z,12.00
2018-08-09T00:57:49.225Z,10.53
2018-08-09T01:00:17.350Z,11.77
2018-08-09T01:02:45.513Z,12.93
2018-08-09T01:05:13.690Z,15.40
2018-08-09T01:07:42.030Z,13.37
2018-08-09T01:10:10.205Z,11.97
2018-08-09T01:12:38.349Z,11.90
2018-08-09T01:15:06.530Z,10.87
2018-08-09T01:17:34.672Z,10.53
2018-08-09T01:20:02.848Z,12.80
2018-08-09T01:22:31.001Z,11.80
2018-08-09T01:24:59.178Z,14.23
2018-08-09T01:27:27.351Z,12.30
2018-08-09T01:29:55.492Z,9.70
2018-08-09T01:32:23.649Z,12.50
2018-08-09T01:34:51.797Z,10.80
2018-08-09T01:37:19.948Z,14.77
2018-08-09T01:39:48.111Z,10.20
2018-08-09T01:42:27.755Z,11.80
2018-08-09T01:44:55.917Z,15.03
2018-08-09T01:47:24.091Z,11.77
2018-08-09T01:49:52.242Z,10.00
2018-08-09T01:52:20.382Z,8.83
2018-08-09T01:54:48.558Z,17.93
2018-08-09T01:57:16.714Z,9.47
2018-08-09T01:59:44.876Z,12.07
2018-08-09T02:02:13.009Z,12.43
2018-08-09T02:04:41.195Z,9.53
2018-08-09T02:07:09.354Z,13.63
2018-08-09T02:09:37.540Z,11.30
2018-08-09T02:12:05.693Z,11.97
2018-08-09T02:14:33.865Z,11.47
2018-08-09T02:17:02.098Z,11.47
2018-08-09T02:19:30.613Z,12.33
2018-08-09T02:21:58.769Z,9.23
2018-08-09T02:24:26.977Z,10.50
2018-08-09T02:26:55.125Z,13.00
2018-08-09T02:29:23.267Z,11.13
2018-08-09T02:31:51.424Z,11.63
2018-08-09T02:34:19.558Z,12.50
2018-08-09T02:36:47.700Z,10.10
2018-08-09T02:39:15.850Z,13.00
2018-08-09T02:41:44.009Z,12.80
2018-08-09T02:44:12.157Z,12.60
2018-08-09T02:46:40.373Z,10.83
2018-08-09T02:49:08.493Z,10.30
2018-08-09T02:51:36.625Z,13.83
2018-08-09T02:54:04.776Z,12.97
2018-08-09T02:56:32.921Z,11.93
2018-08-09T02:59:01.063Z,12.80
2018-08-09T03:01:29.213Z,10.40
2018-08-09T03:03:57.364Z,10.60
2018-08-09T03:06:25.513Z,9.80
2018-08-09T03:08:53.649Z,14.30
2018-08-09T03:11:21.784Z,10.43
2018-08-09T03:13:49.957Z,9.53
2018-08-09T03:16:18.085Z,9.90
2018-08-09T03:18:46.213Z,11.90
2018-08-09T03:21:14.366Z,10.83
2018-08-09T03:23:42.513Z,13.03
2018-08-09T03:26:10.670Z,14.73
2018-08-09T03:28:38.806Z,10.23
2018-08-09T03:31:06.972Z,12.70
2018-08-09T03:33:35.112Z,16.10
2018-08-09T03:36:03.296Z,13.23
2018-08-09T03:38:31.434Z,11.17
2018-08-09T03:40:59.581Z,11.83
2018-08-09T03:43:28.260Z,10.57
2018-08-09T03:45:56.416Z,11.40
2018-08-09T03:48:24.749Z,13.60
2018-08-09T03:50:52.898Z,10.50
2018-08-09T03:53:21.065Z,12.40
2018-08-09T03:55:49.222Z,13.80
2018-08-09T03:58:17.435Z,16.07
2018-08-09T04:00:45.520Z,16.33
2018-08-09T04:03:13.679Z,14.23
2018-08-09T04:05:41.841Z,10.47
2018-08-09T04:08:10.010Z,12.37
2018-08-09T04:10:38.168Z,10.40
2018-08-09T04:13:06.321Z,10.73
2018-08-09T04:15:34.469Z,11.07
2018-08-09T04:18:02.651Z,8.53
2018-08-09T04:20:30.797Z,13.10
2018-08-09T04:22:58.960Z,11.83
2018-08-09T04:25:27.104Z,10.57
2018-08-09T04:27:55.261Z,10.70
2018-08-09T04:30:23.415Z,13.50
2018-08-09T04:32:51.597Z,10.00
2018-08-09T04:35:19.772Z,9.70
2018-08-09T04:37:47.957Z,13.20
2018-08-09T04:40:16.157Z,12.77
2018-08-09T04:42:44.324Z,11.47
2018-08-09T04:45:13.369Z,9.50
2018-08-09T04:47:41.563Z,11.50
2018-08-09T04:50:09.758Z,11.57
2018-08-09T04:52:37.885Z,10.00
2018-08-09T04:55:06.117Z,12.20
2018-08-09T04:57:34.279Z,16.60
2018-08-09T05:00:02.429Z,11.50
2018-08-09T05:02:30.569Z,8.97
2018-08-09T05:04:58.709Z,11.80
2018-08-09T05:07:26.873Z,13.17
2018-08-09T05:09:55.094Z,15.73
2018-08-09T05:12:23.253Z,8.80
2018-08-09T05:14:51.412Z,11.40
2018-08-09T05:17:19.562Z,12.60
2018-08-09T05:19:47.733Z,13.20
2018-08-09T05:22:15.887Z,14.00
2018-08-09T05:24:44.056Z,17.90
2018-08-09T05:27:12.225Z,13.10
2018-08-09T05:29:40.378Z,12.83
2018-08-09T05:32:08.531Z,14.80
2018-08-09T05:34:36.685Z,11.10
2018-08-09T05:37:04.856Z,9.23
2018-08-09T05:39:33.035Z,21.00
2018-08-09T05:42:01.190Z,12.13
2018-08-09T05:44:29.355Z,11.57
2018-08-09T05:46:57.513Z,13.40
2018-08-09T05:49:25.659Z,17.93
2018-08-09T05:51:53.828Z,12.93
2018-08-09T05:54:21.991Z,11.50
2018-08-09T05:56:50.142Z,12.47
2018-08-09T05:59:18.303Z,12.90
2018-08-09T06:01:46.446Z,12.67
2018-08-09T06:04:14.644Z,12.57
2018-08-09T06:06:42.808Z,13.60
2018-08-09T06:09:12.252Z,14.83
2018-08-09T06:11:40.422Z,16.10
2018-08-09T06:14:09.352Z,13.47
2018-08-09T06:16:37.538Z,10.67
2018-08-09T06:19:06.290Z,13.00
2018-08-09T06:21:34.435Z,11.67
2018-08-09T06:24:02.609Z,13.40
2018-08-09T06:26:30.781Z,17.17
2018-08-09T06:28:58.938Z,12.50
2018-08-09T06:31:27.093Z,17.30
2018-08-09T06:33:55.224Z,12.10
2018-08-09T06:36:23.506Z,16.00
2018-08-09T06:38:51.650Z,16.03
2018-08-09T06:41:19.797Z,15.70
2018-08-09T06:43:47.956Z,14.60
2018-08-09T06:46:16.097Z,12.43
2018-08-09T06:48:44.264Z,10.20
2018-08-09T06:51:12.420Z,8.50
2018-08-09T06:53:40.585Z,10.23
2018-08-09T06:56:08.761Z,13.33
2018-08-09T06:58:36.924Z,12.20
2018-08-09T07:01:05.104Z,13.93
2018-08-09T07:03:33.262Z,10.07
2018-08-09T07:06:01.424Z,12.37
2018-08-09T07:08:29.585Z,10.27
2018-08-09T07:10:57.761Z,10.03
2018-08-09T07:13:25.929Z,15.53
2018-08-09T07:15:54.126Z,10.97
2018-08-09T07:18:22.300Z,10.10
2018-08-09T07:20:50.483Z,12.07
2018-08-09T07:23:18.637Z,11.90
2018-08-09T07:25:46.809Z,11.93
2018-08-09T07:28:15.001Z,9.10
2018-08-09T07:30:43.165Z,10.73
2018-08-09T07:33:11.322Z,14.27
2018-08-09T07:35:39.456Z,9.80
2018-08-09T07:38:07.605Z,9.80
2018-08-09T07:40:36.962Z,10.07
2018-08-09T07:43:05.133Z,8.17
2018-08-09T07:45:33.341Z,10.40
2018-08-09T07:48:01.954Z,10.93
2018-08-09T07:50:30.145Z,9.00
2018-08-09T07:52:58.340Z,11.17
2018-08-09T07:55:26.481Z,14.60
2018-08-09T07:57:54.650Z,11.10
2018-08-09T08:00:22.782Z,17.30
2018-08-09T08:02:50.957Z,13.97
2018-08-09T08:05:19.122Z,13.90
2018-08-09T08:07:47.381Z,13.10
2018-08-09T08:10:15.509Z,9.00
2018-08-09T08:12:43.662Z,16.40
2018-08-09T08:15:11.961Z,10.90
2018-08-09T08:17:40.297Z,12.90
2018-08-09T08:20:08.923Z,14.03
2018-08-09T08:22:37.138Z,10.60
2018-08-09T08:25:05.817Z,15.70
2018-08-09T08:27:33.965Z,9.90
2018-08-09T08:30:02.167Z,11.13
2018-08-09T08:32:30.352Z,11.90
2018-08-09T08:34:58.537Z,13.07
2018-08-09T08:37:26.709Z,12.73
2018-08-09T08:39:54.872Z,11.27
2018-08-09T08:42:23.036Z,9.30
2018-08-09T08:44:51.245Z,11.47
2018-08-09T08:47:19.435Z,9.43
2018-08-09T08:49:47.592Z,12.50
2018-08-09T08:52:15.766Z,11.13
2018-08-09T08:54:43.945Z,14.30
2018-08-09T08:57:12.105Z,12.30
2018-08-09T08:59:40.302Z,9.57
2018-08-09T09:02:08.468Z,13.17
2018-08-09T09:04:36.692Z,7.80
2018-08-09T09:07:04.928Z,10.03
2018-08-09T09:09:33.073Z,6.97
2018-08-09T09:12:01.284Z,10.27
2018-08-09T09:14:29.471Z,8.37
2018-08-09T09:16:57.625Z,8.43
2018-08-09T09:19:25.834Z,9.23
2018-08-09T09:21:54.005Z,8.30
2018-08-09T09:24:22.182Z,10.63
2018-08-09T09:26:50.387Z,9.50
2018-08-09T09:29:18.568Z,9.13
2018-08-09T09:31:46.760Z,10.37
2018-08-09T09:34:14.952Z,9.60
2018-08-09T09:36:43.119Z,9.50
2018-08-09T09:39:11.427Z,7.13
2018-08-09T09:41:39.978Z,9.57
2018-08-09T09:44:08.243Z,7.07
2018-08-09T09:46:36.429Z,10.83
2018-08-09T09:49:04.671Z,9.70
2018-08-09T09:51:32.836Z,9.50
2018-08-09T09:54:01.004Z,7.30
2018-08-09T09:56:29.170Z,9.83
2018-08-09T09:58:57.347Z,9.60
2018-08-09T10:01:30.961Z,6.90
2018-08-09T10:03:59.146Z,9.70
2018-08-09T10:06:27.311Z,7.10
2018-08-09T10:08:55.493Z,7.53
2018-08-09T10:11:23.648Z,9.70
2018-08-09T10:13:51.871Z,9.80
2018-08-09T10:16:20.019Z,8.40
2018-08-09T10:18:48.279Z,6.70
2018-08-09T10:21:16.521Z,7.07
2018-08-09T10:23:44.700Z,6.33
2018-08-09T10:26:12.877Z,11.20
2018-08-09T10:28:41.074Z,10.27
2018-08-09T10:31:09.519Z,8.20
2018-08-09T10:33:37.689Z,6.40
2018-08-09T10:36:05.867Z,8.37
2018-08-09T10:38:34.061Z,9.83
2018-08-09T10:41:02.236Z,8.20
2018-08-09T10:43:30.401Z,9.80
2018-08-09T10:45:58.621Z,8.50
2018-08-09T10:48:26.860Z,7.37
2018-08-09T10:50:55.039Z,7.90
2018-08-09T10:53:23.349Z,7.97
2018-08-09T10:55:51.552Z,7.83
2018-08-09T10:58:22.779Z,10.80
2018-08-09T11:00:51.036Z,12.37
2018-08-09T11:03:19.208Z,7.80
2018-08-09T11:05:47.632Z,6.97
2018-08-09T11:08:16.600Z,10.43
2018-08-09T11:10:44.765Z,6.47
2018-08-09T11:13:12.931Z,7.07
2018-08-09T11:15:41.109Z,16.10
2018-08-09T11:18:09.295Z,7.80
2018-08-09T11:20:37.449Z,6.57
2018-08-09T11:23:05.800Z,5.97
2018-08-09T11:25:34.875Z,7.93
2018-08-09T11:28:03.386Z,7.70
2018-08-09T11:30:31.564Z,9.60
2018-08-09T11:32:59.718Z,6.63
2018-08-09T11:35:27.868Z,8.60
2018-08-09T11:37:55.995Z,7.27
2018-08-09T11:40:24.138Z,14.33
2018-08-09T11:42:52.270Z,14.40
2018-08-09T11:45:20.393Z,6.83
2018-08-09T11:47:48.537Z,8.23
2018-08-09T11:50:16.711Z,11.13
2018-08-09T11:52:44.869Z,7.17
2018-08-09T11:55:12.990Z,6.67
2018-08-09T11:57:41.130Z,6.40
2018-08-09T12:00:09.278Z,6.90
2018-08-09T12:02:37.425Z,7.03
2018-08-09T12:05:05.569Z,7.43
2018-08-09T12:07:33.720Z,7.50
2018-08-09T12:10:01.873Z,8.80
2018-08-09T12:12:30.001Z,6.50
2018-08-09T12:14:58.173Z,7.90
2018-08-09T12:17:26.293Z,10.10
2018-08-09T12:19:54.429Z,11.10
2018-08-09T12:22:22.574Z,10.17
2018-08-09T12:24:50.705Z,8.60
2018-08-09T12:27:18.878Z,7.00
2018-08-09T12:29:47.046Z,8.13
2018-08-09T12:32:15.204Z,8.50
2018-08-09T12:34:43.341Z,8.70
2018-08-09T12:37:11.483Z,6.53
2018-08-09T12:39:39.617Z,7.67
2018-08-09T12:42:07.818Z,6.40
2018-08-09T12:44:36.010Z,6.73
2018-08-09T12:47:04.170Z,5.10
2018-08-09T12:49:32.432Z,4.90
2018-08-09T12:52:00.566Z,6.77
2018-08-09T12:54:28.734Z,5.57
2018-08-09T12:56:56.877Z,8.27
2018-08-09T12:59:25.023Z,9.67
2018-08-09T13:01:53.174Z,6.63
2018-08-09T13:04:21.328Z,5.97
2018-08-09T13:06:59.190Z,6.20
2018-08-09T13:09:27.308Z,6.27
2018-08-09T13:11:55.464Z,4.90
2018-08-09T13:14:23.651Z,5.37
2018-08-09T13:16:51.805Z,5.70
2018-08-09T13:19:19.953Z,6.60
2018-08-09T13:21:48.076Z,6.60
2018-08-09T13:24:16.252Z,6.07
2018-08-09T13:26:44.384Z,7.20
2018-08-09T13:29:12.624Z,5.77
2018-08-09T13:31:40.762Z,9.17
2018-08-09T13:34:09.196Z,8.97
2018-08-09T13:36:37.402Z,7.03
2018-08-09T13:39:09.356Z,8.23
2018-08-09T13:41:37.594Z,13.47
2018-08-09T13:44:06.036Z,10.47
2018-08-09T13:46:34.356Z,10.63
2018-08-09T13:49:02.530Z,7.80
2018-08-09T13:51:30.787Z,5.60
2018-08-09T13:53:58.901Z,6.43
2018-08-09T13:56:27.066Z,12.10
2018-08-09T13:58:55.237Z,6.93
2018-08-09T14:01:23.392Z,10.07
2018-08-09T14:03:51.632Z,9.50
2018-08-09T14:06:19.824Z,12.40
2018-08-09T14:08:47.981Z,6.60
2018-08-09T14:11:16.177Z,8.10
2018-08-09T14:13:44.328Z,5.87
2018-08-09T14:16:12.511Z,6.80
2018-08-09T14:18:40.645Z,4.90
2018-08-09T14:21:08.898Z,4.40
2018-08-09T14:23:37.223Z,5.77
2018-08-09T14:26:05.447Z,7.63
2018-08-09T14:28:33.771Z,9.43
2018-08-09T14:31:02.091Z,5.07
2018-08-09T14:33:30.367Z,6.67
2018-08-09T14:35:58.686Z,6.97
2018-08-09T14:38:26.996Z,10.00
2018-08-09T14:40:55.650Z,6.33
2018-08-09T14:43:23.980Z,10.60
2018-08-09T14:45:52.258Z,5.97
2018-08-09T14:48:20.574Z,9.07
2018-08-09T14:50:48.876Z,8.57
2018-08-09T14:53:17.290Z,13.40
2018-08-09T14:55:45.774Z,8.73
2018-08-09T14:58:13.968Z,5.00
2018-08-09T15:00:42.121Z,5.13
2018-08-09T15:03:10.298Z,7.37
2018-08-09T15:05:38.651Z,7.93
2018-08-09T15:08:06.780Z,8.07
2018-08-09T15:10:34.930Z,6.73
2018-08-09T15:13:03.105Z,6.83
2018-08-09T15:15:31.356Z,7.37
2018-08-09T15:17:59.512Z,7.53
2018-08-09T15:20:27.696Z,6.83
2018-08-09T15:22:56.104Z,4.33
2018-08-09T15:25:25.346Z,7.53
2018-08-09T15:27:53.611Z,7.23
2018-08-09T15:30:22.143Z,7.83
2018-08-09T15:32:50.379Z,7.47
2018-08-09T15:35:18.809Z,7.60
2018-08-09T15:37:47.022Z,6.80
2018-08-09T15:40:15.723Z,7.40
2018-08-09T15:42:44.071Z,6.00
2018-08-09T15:45:13.600Z,11.10
2018-08-09T15:47:42.196Z,10.77
2018-08-09T15:50:12.474Z,8.17
2018-08-09T15:52:40.953Z,6.30
2018-08-09T15:55:09.341Z,8.77
2018-08-09T15:57:37.664Z,6.63
2018-08-09T16:00:09.046Z,8.80
2018-08-09T16:02:37.368Z,7.07
2018-08-09T16:05:06.206Z,6.40
2018-08-09T16:07:34.412Z,9.40
2018-08-09T16:10:02.598Z,7.97
2018-08-09T16:12:30.780Z,8.50
2018-08-09T16:14:59.140Z,11.20
2018-08-09T16:17:27.418Z,7.73
2018-08-09T16:19:55.571Z,6.00
2018-08-09T16:22:23.762Z,8.77
2018-08-09T16:24:52.036Z,9.33
2018-08-09T16:27:20.209Z,7.57
2018-08-09T16:29:48.410Z,10.93
2018-08-09T16:32:16.849Z,8.70
2018-08-09T16:34:45.022Z,5.60
2018-08-09T16:37:13.250Z,12.57
2018-08-09T16:39:41.387Z,7.20
2018-08-09T16:42:09.593Z,7.60
2018-08-09T16:44:38.188Z,5.10
2018-08-09T16:47:06.417Z,5.70
2018-08-09T16:49:34.591Z,10.20
2018-08-09T16:52:17.754Z,6.93
2018-08-09T16:54:46.374Z,6.63
2018-08-09T16:57:14.917Z,7.33
2018-08-09T16:59:43.085Z,4.70
2018-08-09T17:02:11.750Z,7.00
2018-08-09T17:04:39.989Z,14.93
2018-08-09T17:07:08.275Z,9.17
2018-08-09T17:09:36.434Z,5.00
2018-08-09T17:12:04.619Z,8.53
2018-08-09T17:14:32.779Z,8.70
2018-08-09T17:17:00.939Z,9.37
2018-08-09T17:19:29.109Z,9.70
2018-08-09T17:21:57.293Z,11.67
2018-08-09T17:24:28.158Z,6.57
2018-08-09T17:26:56.317Z,5.57
2018-08-09T17:29:24.514Z,6.07
2018-08-09T17:31:52.713Z,6.33
2018-08-09T17:34:20.929Z,11.70
2018-08-09T17:36:49.138Z,9.67
2018-08-09T17:39:17.297Z,6.20
2018-08-09T17:41:45.485Z,4.57
2018-08-09T17:44:13.659Z,6.63
2018-08-09T17:46:41.832Z,13.90
2018-08-09T17:49:10.013Z,6.83
2018-08-09T17:51:38.174Z,5.63
2018-08-09T17:54:06.325Z,5.57
2018-08-09T17:56:34.511Z,3.00
2018-08-09T17:59:02.669Z,6.17
2018-08-09T18:01:30.842Z,5.47
2018-08-09T18:03:59.014Z,6.33
2018-08-09T18:06:27.189Z,3.60
2018-08-09T18:08:55.356Z,3.87
2018-08-09T18:11:23.540Z,3.00
2018-08-09T18:13:51.693Z,2.70
2018-08-09T18:16:19.865Z,3.37
2018-08-09T18:18:48.029Z,5.37
2018-08-09T18:21:16.462Z,3.97
2018-08-09T18:23:44.621Z,4.03
2018-08-09T18:26:12.870Z,7.83
2018-08-09T18:29:52.365Z,8.57
2018-08-09T18:32:20.509Z,4.53
2018-08-09T18:34:48.637Z,3.80
2018-08-09T18:37:16.792Z,5.37
2018-08-09T18:39:44.930Z,4.20
2018-08-09T18:42:13.088Z,3.37
2018-08-09T18:44:41.213Z,4.67
2018-08-09T18:47:09.368Z,3.73
2018-08-09T18:49:37.581Z,4.93
2018-08-09T18:52:05.712Z,6.23
2018-08-09T18:54:33.859Z,5.57
2018-08-09T18:57:02.010Z,6.40
2018-08-09T18:59:30.185Z,4.00
2018-08-09T19:02:00.577Z,3.20
2018-08-09T19:04:28.773Z,9.07
2018-08-09T19:06:56.914Z,2.57
2018-08-09T19:09:25.068Z,3.00
2018-08-09T19:11:53.204Z,2.93
2018-08-09T19:14:21.377Z,3.70
2018-08-09T19:16:49.533Z,4.20
2018-08-09T19:19:17.689Z,2.33
2018-08-09T19:21:45.841Z,3.50
2018-08-09T19:24:13.975Z,3.10
2018-08-09T19:26:42.119Z,5.60
2018-08-09T19:29:10.293Z,3.60
2018-08-09T19:31:38.448Z,3.80
2018-08-09T19:34:06.633Z,5.80
2018-08-09T19:36:34.930Z,8.70
2018-08-09T19:39:03.532Z,5.90
2018-08-09T19:41:31.639Z,3.97
2018-08-09T19:43:59.826Z,5.93
2018-08-09T19:46:28.061Z,3.40
2018-08-09T19:48:56.248Z,7.23
2018-08-09T19:51:24.485Z,3.17
2018-08-09T19:53:52.672Z,5.33
2018-08-09T19:56:20.827Z,5.17
2018-08-09T19:58:48.981Z,5.30
2018-08-09T20:01:17.141Z,3.53
2018-08-09T20:03:45.329Z,4.87
2018-08-09T20:06:13.505Z,4.20
2018-08-09T20:08:41.666Z,3.97
2018-08-09T20:11:09.869Z,4.73
2018-08-09T20:13:38.086Z,3.47
2018-08-09T20:16:06.264Z,4.33
2018-08-09T20:18:34.440Z,4.30
2018-08-09T20:21:02.601Z,7.53
2018-08-09T20:23:30.773Z,8.47
2018-08-09T20:25:58.992Z,7.30
2018-08-09T20:28:27.118Z,5.10
2018-08-09T20:30:55.286Z,3.77
2018-08-09T20:33:23.497Z,4.93
2018-08-09T20:35:51.669Z,3.23
2018-08-09T20:38:19.853Z,7.53
2018-08-09T20:40:48.017Z,4.40
2018-08-09T20:43:16.197Z,9.03
2018-08-09T20:45:44.360Z,3.60
2018-08-09T20:48:12.548Z,4.03
2018-08-09T20:50:40.722Z,4.20
2018-08-09T20:53:08.913Z,3.40
2018-08-09T20:55:37.110Z,4.90
2018-08-09T20:58:05.377Z,5.93
2018-08-09T21:00:34.777Z,4.47
2018-08-09T21:03:03.180Z,4.97
2018-08-09T21:05:35.948Z,4.00
2018-08-09T21:08:04.217Z,7.03
2018-08-09T21:10:32.408Z,3.53
2018-08-09T21:13:00.595Z,3.20
2018-08-09T21:15:28.868Z,6.40
2018-08-09T21:17:57.009Z,4.17
2018-08-09T21:20:25.190Z,4.87
2018-08-09T21:22:53.349Z,3.60
2018-08-09T21:25:21.529Z,4.10
2018-08-09T21:27:49.918Z,3.87
2018-08-09T21:30:19.322Z,3.80
2018-08-09T21:32:47.944Z,4.43
2018-08-09T21:35:16.133Z,4.83
2018-08-09T21:37:44.760Z,4.87
2018-08-09T21:40:13.661Z,6.07
2018-08-09T21:42:41.852Z,3.93
2018-08-09T21:45:19.020Z,5.00
2018-08-09T21:47:47.159Z,4.20
2018-08-09T21:50:17.825Z,4.97
2018-08-09T21:52:46.095Z,5.80
2018-08-09T21:55:14.570Z,4.00
2018-08-09T21:57:43.566Z,3.77
2018-08-09T22:00:23.225Z,3.60
2018-08-09T22:02:51.364Z,3.60
2018-08-09T22:05:24.781Z,4.00
2018-08-09T22:07:58.350Z,5.07
2018-08-09T22:10:31.863Z,4.30
2018-08-09T22:13:05.348Z,4.93
2018-08-09T22:15:38.910Z,4.43
2018-08-09T22:18:12.589Z,4.03
2018-08-09T22:20:46.223Z,8.37
2018-08-09T22:23:14.320Z,4.20
2018-08-09T22:25:42.484Z,5.30
2018-08-09T22:28:10.624Z,7.50
2018-08-09T22:30:38.801Z,6.37
2018-08-09T22:33:06.984Z,4.67
2018-08-09T22:35:35.152Z,5.10
2018-08-09T22:38:03.333Z,5.27
2018-08-09T22:40:31.493Z,3.77
2018-08-09T22:42:59.668Z,3.40
2018-08-09T22:45:27.846Z,4.00
2018-08-09T22:47:55.985Z,4.67
2018-08-09T22:50:24.165Z,3.63
2018-08-09T22:52:52.329Z,3.50
2018-08-09T22:55:20.484Z,5.50
2018-08-09T22:57:48.645Z,3.80
2018-08-09T23:00:20.788Z,5.50
2018-08-09T23:02:49.214Z,6.13
2018-08-09T23:05:17.469Z,5.23
2018-08-09T23:07:45.620Z,5.77
2018-08-09T23:10:13.901Z,4.70
2018-08-09T23:12:42.521Z,6.23
2018-08-09T23:15:10.727Z,4.70
2018-08-09T23:17:39.020Z,5.23
2018-08-09T23:20:08.168Z,4.70
2018-08-09T23:22:36.313Z,4.50
2018-08-09T23:25:07.893Z,3.50
2018-08-09T23:27:36.054Z,4.47
2018-08-09T23:30:05.670Z,3.50
2018-08-09T23:32:33.852Z,3.30
2018-08-09T23:35:02.006Z,3.30
2018-08-09T23:37:30.165Z,5.23
2018-08-09T23:39:58.305Z,2.77
2018-08-09T23:42:26.516Z,3.67
2018-08-09T23:44:54.765Z,3.10
2018-08-09T23:47:22.936Z,5.40
2018-08-09T23:49:51.129Z,1.87
2018-08-09T23:52:19.293Z,4.10
2018-08-09T23:54:47.468Z,2.90
2018-08-09T23:57:15.641Z,1.80
2018-08-09T23:59:43.940Z,3.07
